sensor_id;sensor_type;location;lat;lon;timestamp;pressure;altitude;pressure_sealevel;temperature;humidity
76603;BME280;65075;48.390;17.598;2024-03-06T00:01:33;99682.44;;;8.90;70.17
76603;BME280;65075;48.390;17.598;2024-03-06T00:03:59;99691.88;;;9.09;68.87
76603;BME280;65075;48.390;17.598;2024-03-06T00:06:25;99685.63;;;9.08;69.54
76603;BME280;65075;48.390;17.598;2024-03-06T00:08:50;99673.09;;;8.81;70.39
76603;BME280;65075;48.390;17.598;2024-03-06T00:11:16;99683.28;;;9.22;68.43
76603;BME280;65075;48.390;17.598;2024-03-06T00:13:42;99678.56;;;9.39;67.61
76603;BME280;65075;48.390;17.598;2024-03-06T00:16:08;99684.94;;;8.70;70.01
76603;BME280;65075;48.390;17.598;2024-03-06T00:18:34;99682.47;;;9.53;68.33
76603;BME280;65075;48.390;17.598;2024-03-06T00:21:00;99679.06;;;9.68;67.42
76603;BME280;65075;48.390;17.598;2024-03-06T00:23:25;99688.19;;;9.20;68.13
76603;BME280;65075;48.390;17.598;2024-03-06T00:25:51;99653.81;;;9.41;66.63
76603;BME280;65075;48.390;17.598;2024-03-06T00:28:17;99676.19;;;9.16;68.21
76603;BME280;65075;48.390;17.598;2024-03-06T00:30:42;99681.81;;;9.09;69.10
76603;BME280;65075;48.390;17.598;2024-03-06T00:33:08;99682.59;;;9.63;66.53
76603;BME280;65075;48.390;17.598;2024-03-06T00:35:35;99688.38;;;8.87;68.95
76603;BME280;65075;48.390;17.598;2024-03-06T00:38:01;99683.09;;;9.60;67.08
76603;BME280;65075;48.390;17.598;2024-03-06T00:40:28;99685.47;;;9.84;66.23
76603;BME280;65075;48.390;17.598;2024-03-06T00:42:56;99684.31;;;9.74;66.30
76603;BME280;65075;48.390;17.598;2024-03-06T00:45:22;99683.28;;;8.69;69.32
76603;BME280;65075;48.390;17.598;2024-03-06T00:47:48;99686.41;;;8.55;70.13
76603;BME280;65075;48.390;17.598;2024-03-06T00:50:15;99678.94;;;8.94;69.10
76603;BME280;65075;48.390;17.598;2024-03-06T00:52:44;99681.31;;;8.64;70.48
76603;BME280;65075;48.390;17.598;2024-03-06T00:55:10;99689.59;;;8.74;70.32
76603;BME280;65075;48.390;17.598;2024-03-06T00:57:36;99684.66;;;8.71;69.73
76603;BME280;65075;48.390;17.598;2024-03-06T01:00:03;99678.03;;;8.40;70.95
76603;BME280;65075;48.390;17.598;2024-03-06T01:02:39;99685.66;;;8.65;70.72
76603;BME280;65075;48.390;17.598;2024-03-06T01:05:05;99690.22;;;9.08;70.42
76603;BME280;65075;48.390;17.598;2024-03-06T01:07:33;99696.34;;;8.28;72.71
76603;BME280;65075;48.390;17.598;2024-03-06T01:09:59;99656.63;;;8.71;70.39
76603;BME280;65075;48.390;17.598;2024-03-06T01:12:25;99684.94;;;9.50;67.97
76603;BME280;65075;48.390;17.598;2024-03-06T01:14:50;99689.22;;;9.77;66.21
76603;BME280;65075;48.390;17.598;2024-03-06T01:17:16;99672.47;;;9.27;66.92
76603;BME280;65075;48.390;17.598;2024-03-06T01:19:42;99687.66;;;8.70;69.13
76603;BME280;65075;48.390;17.598;2024-03-06T01:22:11;99682.00;;;8.76;69.84
76603;BME280;65075;48.390;17.598;2024-03-06T01:24:39;99684.88;;;8.91;69.73
76603;BME280;65075;48.390;17.598;2024-03-06T01:27:04;99684.78;;;8.59;69.50
76603;BME280;65075;48.390;17.598;2024-03-06T01:29:30;99688.91;;;8.84;68.43
76603;BME280;65075;48.390;17.598;2024-03-06T01:31:55;99687.22;;;8.56;70.68
76603;BME280;65075;48.390;17.598;2024-03-06T01:34:21;99685.00;;;8.53;70.04
76603;BME280;65075;48.390;17.598;2024-03-06T01:36:47;99688.81;;;9.27;67.97
76603;BME280;65075;48.390;17.598;2024-03-06T01:39:13;99690.25;;;9.66;66.63
76603;BME280;65075;48.390;17.598;2024-03-06T01:41:46;99695.25;;;9.48;66.96
76603;BME280;65075;48.390;17.598;2024-03-06T01:44:13;99689.22;;;8.66;69.31
76603;BME280;65075;48.390;17.598;2024-03-06T01:46:38;99682.81;;;8.77;69.26
76603;BME280;65075;48.390;17.598;2024-03-06T01:49:07;99672.19;;;9.02;67.87
76603;BME280;65075;48.390;17.598;2024-03-06T01:51:35;99686.34;;;8.99;68.06
76603;BME280;65075;48.390;17.598;2024-03-06T01:54:03;99688.66;;;9.12;68.05
76603;BME280;65075;48.390;17.598;2024-03-06T01:56:31;99684.78;;;9.08;68.44
76603;BME280;65075;48.390;17.598;2024-03-06T01:58:58;99693.19;;;8.80;69.33
76603;BME280;65075;48.390;17.598;2024-03-06T02:01:24;99661.84;;;8.50;69.79
76603;BME280;65075;48.390;17.598;2024-03-06T02:03:52;99693.13;;;9.23;66.24
76603;BME280;65075;48.390;17.598;2024-03-06T02:06:18;99689.28;;;8.71;68.42
76603;BME280;65075;48.390;17.598;2024-03-06T02:08:48;99698.31;;;8.98;68.39
76603;BME280;65075;48.390;17.598;2024-03-06T02:11:13;99692.22;;;8.26;70.32
76603;BME280;65075;48.390;17.598;2024-03-06T02:13:41;99692.19;;;8.04;71.65
76603;BME280;65075;48.390;17.598;2024-03-06T02:16:07;99703.69;;;9.46;67.42
76603;BME280;65075;48.390;17.598;2024-03-06T02:18:33;99700.41;;;9.44;67.35
76603;BME280;65075;48.390;17.598;2024-03-06T02:20:58;99693.44;;;9.95;65.41
76603;BME280;65075;48.390;17.598;2024-03-06T02:23:24;99688.66;;;8.63;67.80
76603;BME280;65075;48.390;17.598;2024-03-06T02:25:50;99699.34;;;8.48;69.83
76603;BME280;65075;48.390;17.598;2024-03-06T02:28:16;99688.53;;;8.53;69.97
76603;BME280;65075;48.390;17.598;2024-03-06T02:30:42;99688.75;;;8.74;69.00
76603;BME280;65075;48.390;17.598;2024-03-06T02:33:08;99680.59;;;8.95;68.01
76603;BME280;65075;48.390;17.598;2024-03-06T02:35:35;99689.56;;;8.47;68.46
76603;BME280;65075;48.390;17.598;2024-03-06T02:38:04;99695.59;;;8.76;68.58
76603;BME280;65075;48.390;17.598;2024-03-06T02:40:33;99688.47;;;8.70;68.96
76603;BME280;65075;48.390;17.598;2024-03-06T02:42:59;99681.97;;;8.49;69.95
76603;BME280;65075;48.390;17.598;2024-03-06T02:45:25;99699.72;;;8.79;69.59
76603;BME280;65075;48.390;17.598;2024-03-06T02:47:51;99704.13;;;8.85;67.49
76603;BME280;65075;48.390;17.598;2024-03-06T02:50:16;99700.66;;;8.68;68.29
76603;BME280;65075;48.390;17.598;2024-03-06T02:52:42;99700.72;;;9.21;67.25
76603;BME280;65075;48.390;17.598;2024-03-06T02:55:08;99707.19;;;9.15;66.84
76603;BME280;65075;48.390;17.598;2024-03-06T02:57:34;99677.72;;;8.20;69.18
76603;BME280;65075;48.390;17.598;2024-03-06T02:59:59;99706.47;;;8.76;69.89
76603;BME280;65075;48.390;17.598;2024-03-06T03:02:25;99716.91;;;8.62;69.55
76603;BME280;65075;48.390;17.598;2024-03-06T03:04:52;99707.56;;;8.15;69.29
76603;BME280;65075;48.390;17.598;2024-03-06T03:07:18;99654.38;;;8.62;67.59
76603;BME280;65075;48.390;17.598;2024-03-06T03:09:45;99704.84;;;8.53;68.38
76603;BME280;65075;48.390;17.598;2024-03-06T03:12:10;99699.97;;;8.17;70.42
76603;BME280;65075;48.390;17.598;2024-03-06T03:14:37;99683.91;;;7.77;70.82
76603;BME280;65075;48.390;17.598;2024-03-06T03:17:03;99712.25;;;8.58;68.12
76603;BME280;65075;48.390;17.598;2024-03-06T03:19:31;99706.69;;;8.70;68.13
76603;BME280;65075;48.390;17.598;2024-03-06T03:21:56;99685.25;;;8.51;68.34
76603;BME280;65075;48.390;17.598;2024-03-06T03:24:23;99702.53;;;8.24;70.60
76603;BME280;65075;48.390;17.598;2024-03-06T03:26:52;99713.59;;;8.55;69.40
76603;BME280;65075;48.390;17.598;2024-03-06T03:29:19;99688.88;;;8.02;69.63
76603;BME280;65075;48.390;17.598;2024-03-06T03:31:46;99725.03;;;8.36;68.60
76603;BME280;65075;48.390;17.598;2024-03-06T03:34:11;99727.59;;;8.09;70.24
76603;BME280;65075;48.390;17.598;2024-03-06T03:36:41;99720.59;;;8.51;68.41
76603;BME280;65075;48.390;17.598;2024-03-06T03:39:09;99724.72;;;8.76;68.14
76603;BME280;65075;48.390;17.598;2024-03-06T03:41:47;99726.81;;;8.14;70.12
76603;BME280;65075;48.390;17.598;2024-03-06T03:44:16;99728.59;;;8.85;68.33
76603;BME280;65075;48.390;17.598;2024-03-06T03:46:42;99721.09;;;8.48;68.85
76603;BME280;65075;48.390;17.598;2024-03-06T03:49:09;99708.41;;;8.76;66.52
76603;BME280;65075;48.390;17.598;2024-03-06T03:51:35;99720.41;;;8.80;66.67
76603;BME280;65075;48.390;17.598;2024-03-06T03:54:01;99725.13;;;8.68;67.31
76603;BME280;65075;48.390;17.598;2024-03-06T03:56:27;99728.13;;;8.44;68.24
76603;BME280;65075;48.390;17.598;2024-03-06T03:58:53;99728.97;;;8.12;69.13
76603;BME280;65075;48.390;17.598;2024-03-06T04:01:18;99725.22;;;7.96;69.82
76603;BME280;65075;48.390;17.598;2024-03-06T04:03:44;99711.16;;;8.59;66.85
76603;BME280;65075;48.390;17.598;2024-03-06T04:06:10;99726.25;;;8.28;69.21
76603;BME280;65075;48.390;17.598;2024-03-06T04:08:36;99729.00;;;7.78;70.25
76603;BME280;65075;48.390;17.598;2024-03-06T04:11:03;99732.78;;;8.71;68.11
76603;BME280;65075;48.390;17.598;2024-03-06T04:13:29;99724.44;;;8.17;69.15
76603;BME280;65075;48.390;17.598;2024-03-06T04:15:54;99732.72;;;7.89;70.37
76603;BME280;65075;48.390;17.598;2024-03-06T04:18:21;99731.97;;;7.77;71.46
76603;BME280;65075;48.390;17.598;2024-03-06T04:20:46;99729.50;;;8.47;68.40
76603;BME280;65075;48.390;17.598;2024-03-06T04:23:12;99739.00;;;8.11;68.40
76603;BME280;65075;48.390;17.598;2024-03-06T04:25:37;99729.50;;;8.69;67.69
76603;BME280;65075;48.390;17.598;2024-03-06T04:28:05;99741.06;;;8.59;67.63
76603;BME280;65075;48.390;17.598;2024-03-06T04:30:33;99747.25;;;9.19;66.01
76603;BME280;65075;48.390;17.598;2024-03-06T04:32:58;99744.63;;;8.21;67.56
76603;BME280;65075;48.390;17.598;2024-03-06T04:35:24;99743.94;;;8.47;68.13
76603;BME280;65075;48.390;17.598;2024-03-06T04:37:50;99748.94;;;8.55;67.14
76603;BME280;65075;48.390;17.598;2024-03-06T04:40:15;99748.97;;;8.22;68.23
76603;BME280;65075;48.390;17.598;2024-03-06T04:42:45;99752.03;;;8.64;67.37
76603;BME280;65075;48.390;17.598;2024-03-06T04:45:17;99754.94;;;9.28;64.82
76603;BME280;65075;48.390;17.598;2024-03-06T04:47:44;99724.69;;;8.32;66.61
76603;BME280;65075;48.390;17.598;2024-03-06T04:50:12;99764.88;;;7.80;69.12
76603;BME280;65075;48.390;17.598;2024-03-06T04:52:41;99752.59;;;8.11;69.00
76603;BME280;65075;48.390;17.598;2024-03-06T04:55:08;99754.88;;;8.74;66.92
76603;BME280;65075;48.390;17.598;2024-03-06T04:57:42;99772.03;;;7.53;70.02
76603;BME280;65075;48.390;17.598;2024-03-06T05:00:10;99758.47;;;7.70;70.81
76603;BME280;65075;48.390;17.598;2024-03-06T05:02:39;99754.75;;;7.14;72.42
76603;BME280;65075;48.390;17.598;2024-03-06T05:05:06;99765.44;;;7.66;70.40
76603;BME280;65075;48.390;17.598;2024-03-06T05:07:35;99760.53;;;7.18;72.67
76603;BME280;65075;48.390;17.598;2024-03-06T05:10:02;99757.94;;;7.39;70.93
76603;BME280;65075;48.390;17.598;2024-03-06T05:12:31;99766.13;;;7.28;73.12
76603;BME280;65075;48.390;17.598;2024-03-06T05:15:01;99768.69;;;7.96;69.39
76603;BME280;65075;48.390;17.598;2024-03-06T05:17:31;99764.25;;;8.61;67.06
76603;BME280;65075;48.390;17.598;2024-03-06T05:20:01;99759.88;;;7.89;70.12
76603;BME280;65075;48.390;17.598;2024-03-06T05:22:31;99769.38;;;8.58;68.56
76603;BME280;65075;48.390;17.598;2024-03-06T05:24:58;99760.84;;;8.33;68.28
76603;BME280;65075;48.390;17.598;2024-03-06T05:27:28;99773.41;;;8.22;68.98
76603;BME280;65075;48.390;17.598;2024-03-06T05:29:55;99764.78;;;8.08;69.44
76603;BME280;65075;48.390;17.598;2024-03-06T05:32:22;99757.84;;;8.51;67.54
76603;BME280;65075;48.390;17.598;2024-03-06T05:34:49;99767.19;;;8.38;68.32
76603;BME280;65075;48.390;17.598;2024-03-06T05:37:16;99780.28;;;7.75;70.78
76603;BME280;65075;48.390;17.598;2024-03-06T05:39:44;99769.25;;;8.70;66.41
76603;BME280;65075;48.390;17.598;2024-03-06T05:42:11;99771.97;;;8.70;67.10
76603;BME280;65075;48.390;17.598;2024-03-06T05:44:37;99768.09;;;7.94;69.64
76603;BME280;65075;48.390;17.598;2024-03-06T05:47:04;99781.28;;;8.35;68.69
76603;BME280;65075;48.390;17.598;2024-03-06T05:49:32;99779.38;;;8.02;68.97
76603;BME280;65075;48.390;17.598;2024-03-06T05:51:59;99785.47;;;7.93;70.15
76603;BME280;65075;48.390;17.598;2024-03-06T05:54:26;99779.22;;;9.29;65.30
76603;BME280;65075;48.390;17.598;2024-03-06T05:56:54;99784.69;;;9.34;64.92
76603;BME280;65075;48.390;17.598;2024-03-06T05:59:20;99792.06;;;8.69;67.33
76603;BME280;65075;48.390;17.598;2024-03-06T06:01:47;99793.50;;;8.54;67.43
76603;BME280;65075;48.390;17.598;2024-03-06T06:04:14;99793.38;;;8.11;69.41
76603;BME280;65075;48.390;17.598;2024-03-06T06:06:41;99794.91;;;9.22;66.37
76603;BME280;65075;48.390;17.598;2024-03-06T06:09:07;99798.94;;;10.00;63.83
76603;BME280;65075;48.390;17.598;2024-03-06T06:11:43;99794.50;;;9.89;63.66
76603;BME280;65075;48.390;17.598;2024-03-06T06:14:10;99795.13;;;9.69;62.77
76603;BME280;65075;48.390;17.598;2024-03-06T06:16:38;99797.72;;;10.49;61.78
76603;BME280;65075;48.390;17.598;2024-03-06T06:19:07;99801.66;;;9.95;62.99
76603;BME280;65075;48.390;17.598;2024-03-06T06:21:34;99798.56;;;10.55;61.66
76603;BME280;65075;48.390;17.598;2024-03-06T06:24:03;99792.22;;;9.75;63.80
76603;BME280;65075;48.390;17.598;2024-03-06T06:26:29;99793.25;;;11.52;58.31
76603;BME280;65075;48.390;17.598;2024-03-06T06:28:57;99806.25;;;11.20;59.50
76603;BME280;65075;48.390;17.598;2024-03-06T06:31:24;99796.06;;;10.90;59.90
76603;BME280;65075;48.390;17.598;2024-03-06T06:33:53;99797.09;;;10.37;60.92
76603;BME280;65075;48.390;17.598;2024-03-06T06:36:20;99783.50;;;10.10;62.23
76603;BME280;65075;48.390;17.598;2024-03-06T06:38:46;99801.44;;;10.80;59.96
76603;BME280;65075;48.390;17.598;2024-03-06T06:41:14;99802.22;;;11.37;57.97
76603;BME280;65075;48.390;17.598;2024-03-06T06:43:40;99803.06;;;11.48;57.36
76603;BME280;65075;48.390;17.598;2024-03-06T06:46:08;99808.53;;;12.89;54.27
76603;BME280;65075;48.390;17.598;2024-03-06T06:48:35;99797.28;;;13.60;52.59
76603;BME280;65075;48.390;17.598;2024-03-06T06:51:02;99810.00;;;13.36;51.64
76603;BME280;65075;48.390;17.598;2024-03-06T06:53:30;99802.38;;;13.76;51.73
76603;BME280;65075;48.390;17.598;2024-03-06T06:55:57;99814.00;;;14.65;48.80
76603;BME280;65075;48.390;17.598;2024-03-06T06:58:24;99810.03;;;14.76;48.33
76603;BME280;65075;48.390;17.598;2024-03-06T07:00:53;99811.03;;;14.32;50.06
76603;BME280;65075;48.390;17.598;2024-03-06T07:03:20;99812.22;;;14.16;50.57
76603;BME280;65075;48.390;17.598;2024-03-06T07:05:48;99804.94;;;15.35;47.63
76603;BME280;65075;48.390;17.598;2024-03-06T07:08:15;99802.47;;;16.46;44.32
76603;BME280;65075;48.390;17.598;2024-03-06T07:10:42;99814.97;;;14.79;48.16
76603;BME280;65075;48.390;17.598;2024-03-06T07:13:13;99809.34;;;15.36;47.50
76603;BME280;65075;48.390;17.598;2024-03-06T07:15:40;99811.13;;;13.84;49.95
76603;BME280;65075;48.390;17.598;2024-03-06T07:18:07;99819.25;;;14.27;49.16
76603;BME280;65075;48.390;17.598;2024-03-06T07:20:34;99805.81;;;13.53;50.54
76603;BME280;65075;48.390;17.598;2024-03-06T07:23:04;99817.97;;;14.20;47.99
76603;BME280;65075;48.390;17.598;2024-03-06T07:25:31;99804.19;;;13.47;48.94
76603;BME280;65075;48.390;17.598;2024-03-06T07:27:57;99820.75;;;14.15;46.87
76603;BME280;65075;48.390;17.598;2024-03-06T07:30:24;99819.75;;;15.39;43.92
76603;BME280;65075;48.390;17.598;2024-03-06T07:32:51;99815.50;;;15.05;44.59
76603;BME280;65075;48.390;17.598;2024-03-06T07:35:18;99825.66;;;13.79;47.00
76603;BME280;65075;48.390;17.598;2024-03-06T07:37:45;99826.41;;;12.67;50.21
76603;BME280;65075;48.390;17.598;2024-03-06T07:40:12;99823.66;;;12.61;50.27
76603;BME280;65075;48.390;17.598;2024-03-06T07:42:38;99824.88;;;13.19;49.13
76603;BME280;65075;48.390;17.598;2024-03-06T07:45:05;99825.72;;;13.10;49.81
76603;BME280;65075;48.390;17.598;2024-03-06T07:47:35;99829.88;;;13.61;48.33
76603;BME280;65075;48.390;17.598;2024-03-06T07:50:05;99833.97;;;14.47;47.46
76603;BME280;65075;48.390;17.598;2024-03-06T07:52:33;99831.38;;;14.26;46.94
76603;BME280;65075;48.390;17.598;2024-03-06T07:54:59;99814.97;;;13.34;49.04
76603;BME280;65075;48.390;17.598;2024-03-06T07:57:27;99828.81;;;12.88;49.27
76603;BME280;65075;48.390;17.598;2024-03-06T07:59:54;99833.50;;;12.73;50.15
76603;BME280;65075;48.390;17.598;2024-03-06T08:02:20;99829.72;;;12.08;51.53
76603;BME280;65075;48.390;17.598;2024-03-06T08:04:46;99827.78;;;11.88;52.39
76603;BME280;65075;48.390;17.598;2024-03-06T08:07:13;99832.31;;;12.99;51.25
76603;BME280;65075;48.390;17.598;2024-03-06T08:09:38;99837.88;;;12.74;51.96
76603;BME280;65075;48.390;17.598;2024-03-06T08:12:04;99843.09;;;11.89;52.72
76603;BME280;65075;48.390;17.598;2024-03-06T08:14:29;99829.97;;;12.01;51.99
76603;BME280;65075;48.390;17.598;2024-03-06T08:16:55;99840.38;;;12.10;50.92
76603;BME280;65075;48.390;17.598;2024-03-06T08:19:21;99834.09;;;12.19;51.31
76603;BME280;65075;48.390;17.598;2024-03-06T08:21:46;99830.53;;;11.98;50.95
76603;BME280;65075;48.390;17.598;2024-03-06T08:24:12;99842.56;;;12.23;50.83
76603;BME280;65075;48.390;17.598;2024-03-06T08:26:38;99831.38;;;13.39;48.96
76603;BME280;65075;48.390;17.598;2024-03-06T08:29:03;99855.25;;;14.60;44.95
76603;BME280;65075;48.390;17.598;2024-03-06T08:31:29;99818.19;;;15.10;43.59
76603;BME280;65075;48.390;17.598;2024-03-06T08:33:56;99841.13;;;16.22;41.60
76603;BME280;65075;48.390;17.598;2024-03-06T08:36:21;99842.03;;;16.69;40.46
76603;BME280;65075;48.390;17.598;2024-03-06T08:38:47;99826.75;;;17.17;38.49
76603;BME280;65075;48.390;17.598;2024-03-06T08:41:12;99837.69;;;17.22;38.79
76603;BME280;65075;48.390;17.598;2024-03-06T08:43:38;99847.78;;;17.13;38.68
76603;BME280;65075;48.390;17.598;2024-03-06T08:46:04;99838.97;;;16.19;39.04
76603;BME280;65075;48.390;17.598;2024-03-06T08:48:30;99850.09;;;16.46;40.89
76603;BME280;65075;48.390;17.598;2024-03-06T08:50:55;99851.03;;;16.23;40.08
76603;BME280;65075;48.390;17.598;2024-03-06T08:53:21;99844.03;;;15.93;39.98
76603;BME280;65075;48.390;17.598;2024-03-06T08:55:46;99846.22;;;16.15;40.25
76603;BME280;65075;48.390;17.598;2024-03-06T08:58:12;99853.84;;;16.18;39.94
76603;BME280;65075;48.390;17.598;2024-03-06T09:00:39;99854.84;;;15.48;40.28
76603;BME280;65075;48.390;17.598;2024-03-06T09:03:05;99855.44;;;17.16;36.84
76603;BME280;65075;48.390;17.598;2024-03-06T09:05:31;99866.03;;;16.49;39.16
76603;BME280;65075;48.390;17.598;2024-03-06T09:07:56;99866.19;;;17.17;37.28
76603;BME280;65075;48.390;17.598;2024-03-06T09:10:23;99854.00;;;15.71;40.55
76603;BME280;65075;48.390;17.598;2024-03-06T09:12:48;99863.63;;;14.45;42.66
76603;BME280;65075;48.390;17.598;2024-03-06T09:15:15;99864.84;;;15.38;41.32
76603;BME280;65075;48.390;17.598;2024-03-06T09:17:42;99868.50;;;15.58;40.85
76603;BME280;65075;48.390;17.598;2024-03-06T09:20:08;99855.06;;;15.93;38.92
76603;BME280;65075;48.390;17.598;2024-03-06T09:22:40;99865.03;;;16.08;39.07
76603;BME280;65075;48.390;17.598;2024-03-06T09:25:07;99866.56;;;16.33;39.55
76603;BME280;65075;48.390;17.598;2024-03-06T09:27:33;99864.44;;;15.26;40.84
76603;BME280;65075;48.390;17.598;2024-03-06T09:29:59;99850.41;;;14.52;40.61
76603;BME280;65075;48.390;17.598;2024-03-06T09:32:25;99866.31;;;14.78;40.45
76603;BME280;65075;48.390;17.598;2024-03-06T09:34:52;99865.72;;;15.10;39.89
76603;BME280;65075;48.390;17.598;2024-03-06T09:37:18;99862.00;;;15.49;39.88
76603;BME280;65075;48.390;17.598;2024-03-06T09:39:43;99859.81;;;15.88;38.26
76603;BME280;65075;48.390;17.598;2024-03-06T09:42:14;99860.16;;;17.29;36.72
76603;BME280;65075;48.390;17.598;2024-03-06T09:44:40;99848.44;;;16.64;38.00
76603;BME280;65075;48.390;17.598;2024-03-06T09:47:06;99865.84;;;16.92;40.98
76603;BME280;65075;48.390;17.598;2024-03-06T09:49:34;99865.56;;;16.42;43.20
76603;BME280;65075;48.390;17.598;2024-03-06T09:52:02;99876.72;;;15.10;44.61
76603;BME280;65075;48.390;17.598;2024-03-06T09:54:29;99873.56;;;15.69;43.18
76603;BME280;65075;48.390;17.598;2024-03-06T09:56:56;99873.78;;;16.10;42.48
76603;BME280;65075;48.390;17.598;2024-03-06T09:59:23;99872.09;;;17.38;39.63
76603;BME280;65075;48.390;17.598;2024-03-06T10:01:56;99868.41;;;17.02;40.70
76603;BME280;65075;48.390;17.598;2024-03-06T10:04:27;99877.94;;;16.64;41.71
76603;BME280;65075;48.390;17.598;2024-03-06T10:06:57;99877.63;;;17.38;40.66
76603;BME280;65075;48.390;17.598;2024-03-06T10:09:24;99863.53;;;17.81;38.12
76603;BME280;65075;48.390;17.598;2024-03-06T10:11:50;99861.25;;;17.83;38.51
76603;BME280;65075;48.390;17.598;2024-03-06T10:14:19;99855.25;;;17.81;38.83
76603;BME280;65075;48.390;17.598;2024-03-06T10:16:59;99864.72;;;16.93;40.32
76603;BME280;65075;48.390;17.598;2024-03-06T10:19:27;99871.84;;;16.80;41.81
76603;BME280;65075;48.390;17.598;2024-03-06T10:21:53;99844.50;;;16.51;40.88
76603;BME280;65075;48.390;17.598;2024-03-06T10:24:21;99865.28;;;17.63;40.17
76603;BME280;65075;48.390;17.598;2024-03-06T10:26:49;99853.66;;;16.66;41.93
76603;BME280;65075;48.390;17.598;2024-03-06T10:29:18;99855.16;;;17.72;39.45
76603;BME280;65075;48.390;17.598;2024-03-06T10:31:58;99866.59;;;18.15;37.35
76603;BME280;65075;48.390;17.598;2024-03-06T10:34:27;99858.00;;;16.16;40.68
76603;BME280;65075;48.390;17.598;2024-03-06T10:36:59;99839.19;;;17.01;39.92
76603;BME280;65075;48.390;17.598;2024-03-06T10:39:27;99847.75;;;17.81;38.34
76603;BME280;65075;48.390;17.598;2024-03-06T10:41:56;99850.53;;;17.27;39.51
76603;BME280;65075;48.390;17.598;2024-03-06T10:44:25;99841.66;;;17.70;39.20
76603;BME280;65075;48.390;17.598;2024-03-06T10:46:57;99847.19;;;16.56;40.84
76603;BME280;65075;48.390;17.598;2024-03-06T10:49:31;99849.44;;;17.14;39.43
76603;BME280;65075;48.390;17.598;2024-03-06T10:52:01;99834.31;;;17.39;38.82
76603;BME280;65075;48.390;17.598;2024-03-06T10:54:30;99847.00;;;18.03;37.63
76603;BME280;65075;48.390;17.598;2024-03-06T10:56:59;99834.59;;;17.64;38.11
76603;BME280;65075;48.390;17.598;2024-03-06T10:59:28;99836.13;;;16.24;40.05
76603;BME280;65075;48.390;17.598;2024-03-06T11:01:59;99839.41;;;16.26;41.00
76603;BME280;65075;48.390;17.598;2024-03-06T11:04:31;99831.72;;;16.61;38.99
76603;BME280;65075;48.390;17.598;2024-03-06T11:07:03;99843.63;;;16.70;39.33
76603;BME280;65075;48.390;17.598;2024-03-06T11:09:34;99830.63;;;17.43;38.62
76603;BME280;65075;48.390;17.598;2024-03-06T11:12:02;99832.13;;;17.77;36.38
76603;BME280;65075;48.390;17.598;2024-03-06T11:14:31;99828.28;;;18.66;36.79
76603;BME280;65075;48.390;17.598;2024-03-06T11:23:02;99830.28;;;18.66;35.30
76603;BME280;65075;48.390;17.598;2024-03-06T11:28:19;99822.84;;;19.14;34.66
76603;BME280;65075;48.390;17.598;2024-03-06T11:30:55;99809.22;;;18.56;35.71
76603;BME280;65075;48.390;17.598;2024-03-06T11:33:45;99818.84;;;18.01;36.06
76603;BME280;65075;48.390;17.598;2024-03-06T11:39:07;99810.78;;;18.26;35.51
76603;BME280;65075;48.390;17.598;2024-03-06T11:41:50;99814.47;;;17.50;35.48
76603;BME280;65075;48.390;17.598;2024-03-06T11:44:19;99802.38;;;19.24;33.72
76603;BME280;65075;48.390;17.598;2024-03-06T11:49:19;99801.81;;;17.99;35.59
76603;BME280;65075;48.390;17.598;2024-03-06T11:51:57;99794.31;;;18.97;33.24
76603;BME280;65075;48.390;17.598;2024-03-06T11:54:24;99790.47;;;19.06;32.87
76603;BME280;65075;48.390;17.598;2024-03-06T11:56:58;99797.16;;;18.08;34.35
76603;BME280;65075;48.390;17.598;2024-03-06T11:59:28;99792.94;;;17.88;34.23
76603;BME280;65075;48.390;17.598;2024-03-06T12:01:57;99778.94;;;17.22;36.73
76603;BME280;65075;48.390;17.598;2024-03-06T12:04:24;99786.25;;;15.93;38.42
76603;BME280;65075;48.390;17.598;2024-03-06T12:06:51;99794.03;;;16.70;37.03
76603;BME280;65075;48.390;17.598;2024-03-06T12:09:18;99769.44;;;16.27;37.15
76603;BME280;65075;48.390;17.598;2024-03-06T12:11:45;99787.75;;;17.10;36.34
76603;BME280;65075;48.390;17.598;2024-03-06T12:14:19;99776.72;;;16.83;35.30
76603;BME280;65075;48.390;17.598;2024-03-06T12:16:56;99778.50;;;16.46;36.68
76603;BME280;65075;48.390;17.598;2024-03-06T12:19:23;99778.50;;;16.14;36.66
76603;BME280;65075;48.390;17.598;2024-03-06T12:21:50;99779.47;;;16.37;36.21
76603;BME280;65075;48.390;17.598;2024-03-06T12:24:17;99776.22;;;16.35;37.51
76603;BME280;65075;48.390;17.598;2024-03-06T12:26:46;99768.25;;;16.33;37.55
76603;BME280;65075;48.390;17.598;2024-03-06T12:29:29;99765.22;;;16.48;36.43
76603;BME280;65075;48.390;17.598;2024-03-06T12:31:58;99778.31;;;16.56;36.93
76603;BME280;65075;48.390;17.598;2024-03-06T12:34:27;99763.75;;;17.73;34.49
76603;BME280;65075;48.390;17.598;2024-03-06T12:36:54;99762.22;;;16.64;36.54
76603;BME280;65075;48.390;17.598;2024-03-06T12:39:21;99761.81;;;16.84;35.88
76603;BME280;65075;48.390;17.598;2024-03-06T12:41:50;99755.19;;;16.85;35.56
76603;BME280;65075;48.390;17.598;2024-03-06T12:44:19;99759.97;;;16.66;35.96
76603;BME280;65075;48.390;17.598;2024-03-06T12:46:46;99771.38;;;16.27;36.40
76603;BME280;65075;48.390;17.598;2024-03-06T12:49:12;99757.13;;;16.84;36.54
76603;BME280;65075;48.390;17.598;2024-03-06T12:51:39;99761.94;;;16.00;37.08
76603;BME280;65075;48.390;17.598;2024-03-06T12:54:07;99766.56;;;15.68;38.00
76603;BME280;65075;48.390;17.598;2024-03-06T12:56:35;99777.13;;;15.98;37.51
76603;BME280;65075;48.390;17.598;2024-03-06T12:59:03;99768.69;;;14.91;39.84
76603;BME280;65075;48.390;17.598;2024-03-06T13:01:30;99761.66;;;15.83;37.66
76603;BME280;65075;48.390;17.598;2024-03-06T13:03:56;99745.84;;;15.57;38.21
76603;BME280;65075;48.390;17.598;2024-03-06T13:06:24;99755.28;;;15.69;38.16
76603;BME280;65075;48.390;17.598;2024-03-06T13:08:50;99757.56;;;15.01;39.03
76603;BME280;65075;48.390;17.598;2024-03-06T13:11:17;99701.88;;;15.14;39.21